Time,TemperatureF,DewpointF,PressureIn,WindDirection,WindDirectionDegrees,WindSpeedMPH,WindSpeedGustMPH,Humidity,HourlyPrecipIn,Conditions,Clouds,dailyrainin,SolarRadiationWatts/m^2,SoftwareType,DateUTC
2015-07-06 00:00:00,50.6,43.3,30.03,SSE,153,1.0,21.0,76,0.00,RA,,0.00,0.0,WeatherDisplay:10.37,2015-07-06 06:00:00,
2015-07-06 00:05:00,50.4,43.5,30.03,South,175,1.0,3.0,77,0.00,RA,,0.00,0.0,WeatherDisplay:10.37,2015-07-06 06:05:00,
2015-07-06 00:10:00,50.5,43.5,30.03,South,178,0.0,3.0,77,0.00,BKN,,0.00,0.0,WeatherDisplay:10.37,2015-07-06 06:10:00,
2015-07-06 00:15:00,50.4,43.4,30.03,South,178,0.0,0.0,77,0.00,BKN,,0.00,0.0,WeatherDisplay:10.37,2015-07-06 06:15:00,
2015-07-06 00:20:00,50.1,43.2,30.03,South,178,0.0,0.0,77,0.00,BKN,,0.00,0.0,WeatherDisplay:10.37,2015-07-06 06:20:00,
2015-07-06 00:25:00,50.0,43.1,30.03,South,178,0.0,0.0,77,0.00,BKN,,0.00,0.0,WeatherDisplay:10.37,2015-07-06 06:25:00,
2015-07-06 00:30:00,49.9,43.0,30.02,South,178,0.0,0.0,77,0.00,BKN,,0.00,0.0,WeatherDisplay:10.37,2015-07-06 06:30:00,
2015-07-06 00:35:00,49.9,43.0,30.03,South,178,0.0,0.0,77,0.00,BKN,,0.00,0.0,WeatherDisplay:10.37,2015-07-06 06:35:00,
2015-07-06 00:40:00,49.8,42.9,30.03,South,178,0.0,0.0,77,0.00,BKN,,0.00,0.0,WeatherDisplay:10.37,2015-07-06 06:40:00,
2015-07-06 00:45:00,49.7,42.8,30.03,South,178,0.0,0.0,77,0.00,BKN,,0.00,0.0,WeatherDisplay:10.37,2015-07-06 06:45:00,
2015-07-06 00:50:00,49.5,42.6,30.03,South,178,0.0,0.0,77,0.00,BKN,,0.00,0.0,WeatherDisplay:10.37,2015-07-06 06:50:00,
2015-07-06 00:55:00,49.4,42.8,30.02,South,178,0.0,0.0,78,0.00,BKN,,0.00,0.0,WeatherDisplay:10.37,2015-07-06 06:55:00,
2015-07-06 01:00:00,49.2,42.6,30.03,South,178,0.0,0.0,78,0.00,BKN,,0.00,0.0,WeatherDisplay:10.37,2015-07-06 07:00:00,
2015-07-06 01:05:00,49.0,42.8,30.02,South,178,0.0,0.0,79,0.00,BKN,,0.00,0.0,WeatherDisplay:10.37,2015-07-06 07:05:00,
2015-07-06 01:10:00,48.9,42.7,30.03,South,178,0.0,2.0,79,0.00,BKN,,0.00,0.0,WeatherDisplay:10.37,2015-07-06 07:10:00,
2015-07-06 01:15:00,48.9,42.7,30.02,South,178,0.0,1.0,79,0.00,BKN,,0.00,0.0,WeatherDisplay:10.37,2015-07-06 07:15:00,
2015-07-06 01:20:00,48.9,42.7,30.02,South,178,0.0,2.0,79,0.00,BKN,,0.00,0.0,WeatherDisplay:10.37,2015-07-06 07:20:00,
2015-07-06 01:25:00,49.0,42.8,30.02,South,178,0.0,1.0,79,0.00,SCT,,0.00,0.0,WeatherDisplay:10.37,2015-07-06 07:25:00,
2015-07-06 01:30:00,49.0,42.8,30.02,South,178,0.0,0.0,79,0.00,SCT,,0.00,0.0,WeatherDisplay:10.37,2015-07-06 07:30:00,
2015-07-06 01:35:00,48.9,42.7,30.02,South,178,0.0,1.0,79,0.00,SCT,,0.00,0.0,WeatherDisplay:10.37,2015-07-06 07:35:00,
2015-07-06 01:40:00,48.9,42.7,30.02,South,178,0.0,0.0,79,0.00,SCT,,0.00,0.0,WeatherDisplay:10.37,2015-07-06 07:40:00,
2015-07-06 01:45:00,48.8,42.6,30.02,South,178,0.0,0.0,79,0.00,SCT,,0.00,0.0,WeatherDisplay:10.37,2015-07-06 07:45:00,
2015-07-06 01:50:00,48.6,42.7,30.02,South,178,0.0,0.0,80,0.00,SCT,,0.00,0.0,WeatherDisplay:10.37,2015-07-06 07:50:00,
2015-07-06 01:55:00,48.5,42.6,30.02,South,178,0.0,0.0,80,0.00,SCT,,0.00,0.0,WeatherDisplay:10.37,2015-07-06 07:55:00,
2015-07-06 02:00:00,48.3,42.7,30.01,South,178,0.0,2.0,81,0.00,SCT,,0.00,0.0,WeatherDisplay:10.37,2015-07-06 08:00:00,
2015-07-06 02:05:00,48.3,42.7,30.01,South,178,0.0,2.0,81,0.00,SCT,,0.00,0.0,WeatherDisplay:10.37,2015-07-06 08:05:00,
2015-07-06 02:10:00,48.2,43.9,30.02,South,178,1.0,4.0,85,0.00,SCT,,0.00,0.0,WeatherDisplay:10.37,2015-07-06 08:10:00,
2015-07-06 02:15:00,48.3,43.4,30.01,South,178,0.0,4.0,83,0.00,BKN,,0.00,0.0,WeatherDisplay:10.37,2015-07-06 08:15:00,
2015-07-06 02:20:00,48.4,43.5,30.01,South,178,0.0,0.0,83,0.00,BKN,,0.00,0.0,WeatherDisplay:10.37,2015-07-06 08:20:00,
2015-07-06 02:25:00,48.4,43.5,30.01,South,178,0.0,4.0,83,0.00,BKN,,0.00,0.0,WeatherDisplay:10.37,2015-07-06 08:25:00,
2015-07-06 02:30:00,48.4,43.5,30.01,South,178,0.0,4.0,83,0.00,BKN,,0.00,0.0,WeatherDisplay:10.37,2015-07-06 08:30:00,
2015-07-06 02:35:00,48.3,43.4,30.01,South,178,0.0,4.0,83,0.00,BKN,,0.00,0.0,WeatherDisplay:10.37,2015-07-06 08:35:00,
2015-07-06 02:40:00,48.3,43.4,30.01,South,178,0.0,4.0,83,0.00,BKN,,0.00,0.0,WeatherDisplay:10.37,2015-07-06 08:40:00,
2015-07-06 02:45:00,48.3,43.4,30.01,South,178,0.0,4.0,83,0.00,BKN,,0.00,0.0,WeatherDisplay:10.37,2015-07-06 08:45:00,
2015-07-06 02:50:00,48.2,43.0,30.01,South,178,0.0,4.0,82,0.00,BKN,,0.00,0.0,WeatherDisplay:10.37,2015-07-06 08:50:00,
2015-07-06 02:55:00,48.1,43.2,30.01,South,178,0.0,4.0,83,0.00,BKN,,0.00,0.0,WeatherDisplay:10.37,2015-07-06 08:55:00,
2015-07-06 03:00:00,48.1,43.2,30.01,South,178,0.0,4.0,83,0.00,BKN,,0.00,0.0,WeatherDisplay:10.37,2015-07-06 09:00:00,
2015-07-06 03:05:00,48.1,43.2,30.01,South,178,0.0,0.0,83,0.00,BKN,,0.00,0.0,WeatherDisplay:10.37,2015-07-06 09:05:00,
2015-07-06 03:10:00,48.0,42.8,30.01,South,178,0.0,4.0,82,0.00,BKN,,0.00,0.0,WeatherDisplay:10.37,2015-07-06 09:10:00,
2015-07-06 03:15:00,47.8,42.6,30.01,South,178,0.0,4.0,82,0.00,BKN,,0.00,0.0,WeatherDisplay:10.37,2015-07-06 09:15:00,
2015-07-06 03:20:00,47.6,42.7,30.01,South,178,0.0,4.0,83,0.00,BKN,,0.00,0.0,WeatherDisplay:10.37,2015-07-06 09:20:00,
2015-07-06 03:25:00,47.7,43.1,30.01,South,178,0.0,4.0,84,0.00,SCT,,0.00,0.0,WeatherDisplay:10.37,2015-07-06 09:25:00,
2015-07-06 03:30:00,47.9,43.3,30.01,South,178,0.0,4.0,84,0.00,SCT,,0.00,0.0,WeatherDisplay:10.37,2015-07-06 09:30:00,
2015-07-06 03:35:00,47.9,43.0,30.01,South,178,0.0,4.0,83,0.00,SCT,,0.00,0.0,WeatherDisplay:10.37,2015-07-06 09:35:00,
2015-07-06 03:40:00,47.9,43.0,30.01,South,178,0.0,4.0,83,0.00,SCT,,0.00,0.0,WeatherDisplay:10.37,2015-07-06 09:40:00,
2015-07-06 03:45:00,47.8,42.8,30.01,South,178,0.0,4.0,83,0.00,SCT,,0.00,0.0,WeatherDisplay:10.37,2015-07-06 09:45:00,
2015-07-06 03:50:00,47.7,42.7,30.01,South,178,0.0,4.0,83,0.00,SCT,,0.00,0.0,WeatherDisplay:10.37,2015-07-06 09:50:00,
2015-07-06 03:55:00,47.5,42.6,30.00,South,178,0.0,4.0,83,0.00,SCT,,0.00,0.0,WeatherDisplay:10.37,2015-07-06 09:55:00,
2015-07-06 04:00:00,47.3,42.7,30.00,South,178,0.0,4.0,84,0.00,SCT,,0.00,0.0,WeatherDisplay:10.37,2015-07-06 10:00:00,
2015-07-06 04:05:00,47.1,42.5,30.00,South,178,0.0,0.0,84,0.00,SCT,,0.00,0.0,WeatherDisplay:10.37,2015-07-06 10:05:00,
2015-07-06 04:10:00,46.8,42.2,30.00,South,178,0.0,4.0,84,0.00,SCT,,0.00,0.0,WeatherDisplay:10.37,2015-07-06 10:10:00,
2015-07-06 04:15:00,46.6,42.0,30.00,South,178,0.0,4.0,84,0.00,SCT,,0.00,0.0,WeatherDisplay:10.37,2015-07-06 10:15:00,
2015-07-06 04:20:00,46.3,42.1,30.00,South,178,0.0,4.0,85,0.00,SCT,,0.00,0.0,WeatherDisplay:10.37,2015-07-06 10:20:00,
2015-07-06 04:25:00,46.2,42.2,30.00,South,178,0.0,4.0,86,0.00,FEW,,0.00,0.0,WeatherDisplay:10.37,2015-07-06 10:25:00,
2015-07-06 04:30:00,45.9,41.9,30.00,South,178,0.0,4.0,86,0.00,FEW,,0.00,0.0,WeatherDisplay:10.37,2015-07-06 10:30:00,
2015-07-06 04:35:00,45.8,42.2,30.00,South,172,0.0,4.0,87,0.00,FEW,,0.00,0.0,WeatherDisplay:10.37,2015-07-06 10:35:00,
2015-07-06 04:40:00,45.8,42.2,30.00,SSE,158,0.0,4.0,87,0.00,FEW,,0.00,0.0,WeatherDisplay:10.37,2015-07-06 10:40:00,
2015-07-06 04:45:00,45.8,42.4,30.00,SSE,148,0.0,4.0,88,0.00,FEW,,0.00,0.0,WeatherDisplay:10.37,2015-07-06 10:45:00,
2015-07-06 04:50:00,45.8,42.4,30.00,SE,146,0.0,4.0,88,0.00,FEW,,0.00,0.0,WeatherDisplay:10.37,2015-07-06 10:50:00,
2015-07-06 04:55:00,45.7,42.3,30.00,SE,146,1.0,4.0,88,0.00,FEW,,0.00,0.0,WeatherDisplay:10.37,2015-07-06 10:55:00,
2015-07-06 05:00:00,45.6,42.3,30.00,SE,146,0.0,4.0,88,0.00,FEW,,0.00,0.0,WeatherDisplay:10.37,2015-07-06 11:00:00,
2015-07-06 05:05:00,45.5,42.2,30.00,SE,146,0.0,3.0,88,0.00,FEW,,0.00,0.0,WeatherDisplay:10.37,2015-07-06 11:05:00,
2015-07-06 05:10:00,45.6,42.5,30.00,SE,146,1.0,4.0,89,0.00,FEW,,0.00,0.0,WeatherDisplay:10.37,2015-07-06 11:10:00,
2015-07-06 05:15:00,45.6,42.6,30.00,SE,146,0.0,4.0,89,0.00,FEW,,0.00,0.0,WeatherDisplay:10.37,2015-07-06 11:15:00,
2015-07-06 05:20:00,45.6,42.6,30.00,SE,146,0.0,4.0,89,0.00,FEW,,0.00,0.0,WeatherDisplay:10.37,2015-07-06 11:20:00,
2015-07-06 05:25:00,45.5,42.2,30.00,SE,146,0.0,4.0,88,0.00,FEW,,0.00,0.0,WeatherDisplay:10.37,2015-07-06 11:25:00,
2015-07-06 05:30:00,45.4,42.1,30.00,SE,146,0.0,4.0,88,0.00,FEW,,0.00,0.0,WeatherDisplay:10.37,2015-07-06 11:30:00,
2015-07-06 05:35:00,45.4,42.0,30.00,SE,146,0.0,4.0,88,0.00,FEW,,0.00,5.0,WeatherDisplay:10.37,2015-07-06 11:35:00,
2015-07-06 05:40:00,45.3,42.2,30.00,SE,146,1.0,3.0,89,0.00,FEW,,0.00,9.0,WeatherDisplay:10.37,2015-07-06 11:40:00,
2015-07-06 05:45:00,45.2,42.2,30.00,SE,146,0.0,4.0,89,0.00,FEW,,0.00,12.0,WeatherDisplay:10.37,2015-07-06 11:45:00,
2015-07-06 05:50:00,45.2,42.2,30.00,SE,146,1.0,4.0,89,0.00,FEW,,0.00,16.0,WeatherDisplay:10.37,2015-07-06 11:50:00,
2015-07-06 05:55:00,45.4,42.3,30.00,SE,146,0.0,4.0,89,0.00,FEW,,0.00,19.0,WeatherDisplay:10.37,2015-07-06 11:55:00,
2015-07-06 06:00:00,45.5,42.4,30.00,SE,146,0.0,4.0,89,0.00,FEW,,0.00,23.0,WeatherDisplay:10.37,2015-07-06 12:00:00,
2015-07-06 06:05:00,45.7,42.6,30.00,SSE,151,0.0,0.0,89,0.00,FEW,,0.00,32.0,WeatherDisplay:10.37,2015-07-06 12:05:00,
2015-07-06 06:10:00,45.8,42.7,29.99,SSE,155,0.0,4.0,89,0.00,FEW,,0.00,30.0,WeatherDisplay:10.37,2015-07-06 12:10:00,
2015-07-06 06:15:00,45.9,42.8,29.99,SSE,155,0.0,4.0,89,0.00,FEW,,0.00,47.0,WeatherDisplay:10.37,2015-07-06 12:15:00,
2015-07-06 06:20:00,46.1,42.7,29.99,South,172,0.0,4.0,88,0.00,FEW,,0.00,70.0,WeatherDisplay:10.37,2015-07-06 12:20:00,
2015-07-06 06:25:00,46.3,42.9,29.99,South,190,0.0,4.0,88,0.00,BKN,,0.00,62.0,WeatherDisplay:10.37,2015-07-06 12:25:00,
2015-07-06 06:30:00,46.5,43.1,29.99,South,191,1.0,4.0,88,0.00,BKN,,0.00,93.0,WeatherDisplay:10.37,2015-07-06 12:30:00,
2015-07-06 06:35:00,46.8,43.4,29.99,South,189,1.0,6.0,88,0.00,BKN,,0.00,121.0,WeatherDisplay:10.37,2015-07-06 12:35:00,
2015-07-06 06:40:00,47.2,43.9,29.99,South,189,1.0,5.0,88,0.00,BKN,,0.00,135.0,WeatherDisplay:10.37,2015-07-06 12:40:00,
2015-07-06 06:45:00,47.6,43.9,29.99,South,188,3.0,6.0,87,0.00,BKN,,0.00,81.0,WeatherDisplay:10.37,2015-07-06 12:45:00,
2015-07-06 06:50:00,47.9,44.2,29.98,South,190,2.0,6.0,87,0.00,BKN,,0.00,81.0,WeatherDisplay:10.37,2015-07-06 12:50:00,
2015-07-06 06:55:00,48.1,44.1,29.98,South,190,2.0,5.0,86,0.00,BKN,,0.00,91.0,WeatherDisplay:10.37,2015-07-06 12:55:00,
2015-07-06 07:00:00,48.3,44.3,29.98,SSW,192,1.0,4.0,86,0.00,BKN,,0.00,113.0,WeatherDisplay:10.37,2015-07-06 13:00:00,
2015-07-06 07:05:00,48.6,44.6,29.98,SSW,193,3.0,5.0,86,0.00,BKN,,0.00,137.0,WeatherDisplay:10.37,2015-07-06 13:05:00,
2015-07-06 07:10:00,48.9,44.9,29.98,South,178,2.0,5.0,86,0.00,BKN,,0.00,188.0,WeatherDisplay:10.37,2015-07-06 13:10:00,
2015-07-06 07:15:00,49.4,45.1,29.98,South,185,2.0,6.0,85,0.00,BKN,,0.00,197.0,WeatherDisplay:10.37,2015-07-06 13:15:00,
2015-07-06 07:20:00,49.7,45.1,29.98,SSW,193,2.0,6.0,84,0.00,BKN,,0.00,135.0,WeatherDisplay:10.37,2015-07-06 13:20:00,
2015-07-06 07:25:00,49.8,44.9,29.98,SSW,193,2.0,9.0,83,0.00,BKN,,0.00,160.0,WeatherDisplay:10.37,2015-07-06 13:25:00,
2015-07-06 07:30:00,50.0,45.3,29.98,South,187,1.0,7.0,84,0.00,BKN,,0.00,165.0,WeatherDisplay:10.37,2015-07-06 13:30:00,
2015-07-06 07:35:00,50.1,45.1,29.98,South,185,1.0,6.0,83,0.00,BKN,,0.00,176.0,WeatherDisplay:10.37,2015-07-06 13:35:00,
2015-07-06 07:40:00,50.2,45.2,29.98,South,184,2.0,9.0,83,0.00,BKN,,0.00,199.0,WeatherDisplay:10.37,2015-07-06 13:40:00,
2015-07-06 07:45:00,50.4,45.4,29.98,South,176,0.0,8.0,83,0.00,BKN,,0.00,278.0,WeatherDisplay:10.37,2015-07-06 13:45:00,
2015-07-06 07:50:00,50.5,45.6,29.98,SSE,152,1.0,8.0,83,0.00,BKN,,0.00,250.0,WeatherDisplay:10.37,2015-07-06 13:50:00,
2015-07-06 07:55:00,50.8,45.9,29.99,SSE,157,2.0,7.0,83,0.00,BKN,,0.00,232.0,WeatherDisplay:10.37,2015-07-06 13:55:00,
2015-07-06 08:00:00,51.1,46.1,29.98,South,174,2.0,7.0,83,0.00,BKN,,0.00,383.0,WeatherDisplay:10.37,2015-07-06 14:00:00,
2015-07-06 08:05:00,51.6,46.3,29.98,South,181,1.0,7.0,82,0.00,BKN,,0.00,387.0,WeatherDisplay:10.37,2015-07-06 14:05:00,
2015-07-06 08:10:00,52.1,46.5,29.98,South,186,1.0,9.0,81,0.00,BKN,,0.00,355.0,WeatherDisplay:10.37,2015-07-06 14:10:00,
2015-07-06 08:15:00,52.5,46.5,29.98,South,175,0.0,5.0,80,0.00,BKN,,0.00,401.0,WeatherDisplay:10.37,2015-07-06 14:15:00,
2015-07-06 08:20:00,52.8,46.5,29.98,SE,129,2.0,7.0,79,0.00,BKN,,0.00,410.0,WeatherDisplay:10.37,2015-07-06 14:20:00,
2015-07-06 08:25:00,53.0,46.7,29.98,South,177,2.0,8.0,79,0.00,BKN,,0.00,436.0,WeatherDisplay:10.37,2015-07-06 14:25:00,
2015-07-06 08:30:00,53.3,46.6,29.97,South,180,3.0,10.0,78,0.00,BKN,,0.00,339.0,WeatherDisplay:10.37,2015-07-06 14:30:00,
2015-07-06 08:35:00,53.6,46.9,29.97,South,175,3.0,10.0,78,0.00,BKN,,0.00,381.0,WeatherDisplay:10.37,2015-07-06 14:35:00,
2015-07-06 08:40:00,53.9,46.8,29.96,South,179,3.0,10.0,77,0.00,BKN,,0.00,330.0,WeatherDisplay:10.37,2015-07-06 14:40:00,
2015-07-06 08:45:00,54.1,46.7,29.96,South,178,6.0,10.0,76,0.00,BKN,,0.00,302.0,WeatherDisplay:10.37,2015-07-06 14:45:00,
2015-07-06 08:50:00,54.3,46.9,29.97,South,183,2.0,12.0,76,0.00,BKN,,0.00,316.0,WeatherDisplay:10.37,2015-07-06 14:50:00,
2015-07-06 08:55:00,54.4,47.0,29.96,South,175,1.0,11.0,76,0.00,BKN,,0.00,336.0,WeatherDisplay:10.37,2015-07-06 14:55:00,
2015-07-06 09:00:00,54.5,47.1,29.97,South,175,1.0,11.0,76,0.00,BKN,,0.00,343.0,WeatherDisplay:10.37,2015-07-06 15:00:00,
2015-07-06 09:05:00,54.7,47.3,29.96,SSW,195,1.0,5.0,76,0.00,BKN,,0.00,346.0,WeatherDisplay:10.37,2015-07-06 15:05:00,
2015-07-06 09:10:00,54.9,47.5,29.96,SSW,206,2.0,11.0,76,0.00,BKN,,0.00,439.0,WeatherDisplay:10.37,2015-07-06 15:10:00,
2015-07-06 09:15:00,55.1,47.3,29.96,SSE,156,2.0,11.0,75,0.00,BKN,,0.00,336.0,WeatherDisplay:10.37,2015-07-06 15:15:00,
2015-07-06 09:20:00,55.0,47.2,29.96,SSE,159,1.0,11.0,75,0.00,BKN,,0.00,315.0,WeatherDisplay:10.37,2015-07-06 15:20:00,
2015-07-06 09:25:00,54.9,47.1,29.96,South,173,2.0,11.0,75,0.00,BKN,,0.00,561.0,WeatherDisplay:10.37,2015-07-06 15:25:00,
2015-07-06 09:30:00,55.1,47.3,29.96,SSE,167,2.0,11.0,75,0.00,BKN,,0.00,561.0,WeatherDisplay:10.37,2015-07-06 15:30:00,
2015-07-06 09:35:00,55.6,47.8,29.96,SSE,154,1.0,11.0,75,0.00,BKN,,0.00,596.0,WeatherDisplay:10.37,2015-07-06 15:35:00,
2015-07-06 09:40:00,56.4,48.2,29.96,SE,137,2.0,11.0,74,0.00,BKN,,0.00,603.0,WeatherDisplay:10.37,2015-07-06 15:40:00,
2015-07-06 09:45:00,56.9,48.0,29.96,SE,143,1.0,11.0,72,0.00,BKN,,0.00,573.0,WeatherDisplay:10.37,2015-07-06 15:45:00,
2015-07-06 09:55:00,57.1,48.2,29.96,ESE,123,2.0,7.0,72,0.00,BKN,,0.00,585.0,WeatherDisplay:10.37,2015-07-06 15:55:00,
2015-07-06 10:00:00,57.5,48.5,29.95,SE,142,1.0,14.0,72,0.00,BKN,,0.00,629.0,WeatherDisplay:10.37,2015-07-06 16:00:00,
2015-07-06 10:05:00,57.8,48.8,29.95,SSE,156,2.0,8.0,72,0.00,BKN,,0.00,643.0,WeatherDisplay:10.37,2015-07-06 16:05:00,
2015-07-06 10:15:00,58.8,49.0,29.95,SE,131,1.0,10.0,70,0.00,BKN,,0.00,687.0,WeatherDisplay:10.37,2015-07-06 16:15:00,
2015-07-06 10:20:00,59.1,47.7,29.95,ESE,116,3.0,10.0,66,0.00,BKN,,0.00,587.0,WeatherDisplay:10.37,2015-07-06 16:20:00,
2015-07-06 10:25:00,59.3,48.4,29.94,SSE,150,6.0,10.0,67,0.00,BKN,,0.00,719.0,WeatherDisplay:10.37,2015-07-06 16:25:00,
2015-07-06 10:30:00,59.5,48.1,29.94,SSE,152,2.0,12.0,66,0.00,BKN,,0.00,703.0,WeatherDisplay:10.37,2015-07-06 16:30:00,
2015-07-06 10:35:00,59.8,48.5,29.94,SSE,152,3.0,9.0,66,0.00,BKN,,0.00,643.0,WeatherDisplay:10.37,2015-07-06 16:35:00,
2015-07-06 10:40:00,59.9,48.9,29.94,SSE,156,0.0,9.0,67,0.00,BKN,,0.00,642.0,WeatherDisplay:10.37,2015-07-06 16:40:00,
2015-07-06 10:45:00,60.1,48.7,29.93,SE,132,2.0,12.0,66,0.00,BKN,,0.00,582.0,WeatherDisplay:10.37,2015-07-06 16:45:00,
2015-07-06 10:50:00,59.9,48.5,29.93,SE,127,3.0,9.0,66,0.00,BKN,,0.00,635.0,WeatherDisplay:10.37,2015-07-06 16:50:00,
2015-07-06 10:55:00,60.1,49.5,29.93,SSE,147,1.0,9.0,68,0.00,BKN,,0.00,515.0,WeatherDisplay:10.37,2015-07-06 16:55:00,
2015-07-06 11:00:00,60.3,48.9,29.93,South,170,2.0,8.0,66,0.00,BKN,,0.00,541.0,WeatherDisplay:10.37,2015-07-06 17:00:00,
2015-07-06 11:05:00,60.3,49.3,29.93,South,169,2.0,12.0,67,0.00,BKN,,0.00,679.0,WeatherDisplay:10.37,2015-07-06 17:05:00,
2015-07-06 11:10:00,60.6,50.0,29.92,SSE,153,2.0,13.0,68,0.00,BKN,,0.00,707.0,WeatherDisplay:10.37,2015-07-06 17:10:00,
2015-07-06 11:15:00,60.9,49.9,29.92,SE,125,3.0,9.0,67,0.00,BKN,,0.00,773.0,WeatherDisplay:10.37,2015-07-06 17:15:00,
2015-07-06 11:20:00,61.1,50.1,29.92,ESE,120,7.0,14.0,67,0.00,BKN,,0.00,782.0,WeatherDisplay:10.37,2015-07-06 17:20:00,
2015-07-06 11:25:00,61.2,50.2,29.92,SE,135,5.0,13.0,67,0.00,SCT,,0.00,812.0,WeatherDisplay:10.37,2015-07-06 17:25:00,
2015-07-06 11:30:00,61.8,50.3,29.92,SSE,154,2.0,12.0,66,0.00,SCT,,0.00,807.0,WeatherDisplay:10.37,2015-07-06 17:30:00,
2015-07-06 11:35:00,62.7,49.9,29.92,SSE,163,2.0,9.0,63,0.00,SCT,,0.00,803.0,WeatherDisplay:10.37,2015-07-06 17:35:00,
2015-07-06 11:40:00,63.3,50.1,29.92,SSE,165,1.0,9.0,62,0.00,SCT,,0.00,805.0,WeatherDisplay:10.37,2015-07-06 17:40:00,
2015-07-06 11:50:00,64.1,48.6,29.91,South,172,3.0,13.0,57,0.00,SCT,,0.00,807.0,WeatherDisplay:10.37,2015-07-06 17:50:00,
2015-07-06 11:55:00,64.2,48.2,29.91,SSE,156,6.0,17.0,56,0.00,SCT,,0.00,824.0,WeatherDisplay:10.37,2015-07-06 17:55:00,
2015-07-06 12:05:00,64.5,48.9,29.91,SE,139,2.0,12.0,57,0.00,SCT,,0.00,835.0,WeatherDisplay:10.37,2015-07-06 18:05:00,
2015-07-06 12:10:00,64.9,49.3,29.91,SE,124,2.0,17.0,57,0.00,SCT,,0.00,838.0,WeatherDisplay:10.37,2015-07-06 18:10:00,
2015-07-06 12:15:00,65.2,48.6,29.90,SSE,166,8.0,17.0,55,0.00,SCT,,0.00,846.0,WeatherDisplay:10.37,2015-07-06 18:15:00,
2015-07-06 12:20:00,65.2,48.6,29.90,SSE,153,2.0,17.0,55,0.00,SCT,,0.00,849.0,WeatherDisplay:10.37,2015-07-06 18:20:00,
2015-07-06 12:25:00,65.3,48.7,29.90,SSE,153,6.0,17.0,55,0.00,SCT,,0.00,854.0,WeatherDisplay:10.37,2015-07-06 18:25:00,
2015-07-06 12:30:00,65.7,49.1,29.90,South,180,3.0,17.0,55,0.00,SCT,,0.00,860.0,WeatherDisplay:10.37,2015-07-06 18:30:00,
2015-07-06 12:35:00,66.1,49.5,29.90,South,177,8.0,17.0,55,0.00,SCT,,0.00,863.0,WeatherDisplay:10.37,2015-07-06 18:35:00,
2015-07-06 12:40:00,65.9,48.8,29.89,South,174,3.0,17.0,54,0.00,SCT,,0.00,868.0,WeatherDisplay:10.37,2015-07-06 18:40:00,
2015-07-06 12:45:00,66.1,49.0,29.89,South,173,7.0,17.0,54,0.00,SCT,,0.00,872.0,WeatherDisplay:10.37,2015-07-06 18:45:00,
2015-07-06 12:50:00,66.5,48.8,29.89,SE,145,9.0,17.0,53,0.00,SCT,,0.00,877.0,WeatherDisplay:10.37,2015-07-06 18:50:00,
2015-07-06 12:55:00,66.5,49.9,29.89,SE,143,2.0,17.0,55,0.00,SCT,,0.00,877.0,WeatherDisplay:10.37,2015-07-06 18:55:00,
2015-07-06 13:00:00,67.1,49.4,29.89,SSE,156,3.0,17.0,53,0.00,SCT,,0.00,889.0,WeatherDisplay:10.37,2015-07-06 19:00:00,
2015-07-06 13:10:00,67.9,49.6,29.89,SSE,158,3.0,17.0,52,0.00,SCT,,0.00,895.0,WeatherDisplay:10.37,2015-07-06 19:10:00,
2015-07-06 13:15:00,67.8,49.5,29.89,SSE,168,2.0,17.0,52,0.00,SCT,,0.00,895.0,WeatherDisplay:10.37,2015-07-06 19:15:00,
2015-07-06 13:20:00,67.9,49.6,29.88,SSE,157,3.0,17.0,52,0.00,SCT,,0.00,905.0,WeatherDisplay:10.37,2015-07-06 19:20:00,
2015-07-06 13:30:00,68.1,50.3,29.88,SSE,157,2.0,14.0,53,0.00,SCT,,0.00,932.0,WeatherDisplay:10.37,2015-07-06 19:30:00,
2015-07-06 13:35:00,68.5,50.2,29.88,SSE,160,2.0,17.0,52,0.00,SCT,,0.00,900.0,WeatherDisplay:10.37,2015-07-06 19:35:00,
2015-07-06 13:40:00,68.7,49.8,29.88,SSE,152,3.0,17.0,51,0.00,SCT,,0.00,974.0,WeatherDisplay:10.37,2015-07-06 19:40:00,
2015-07-06 13:45:00,68.9,50.0,29.88,SSE,157,5.0,17.0,51,0.00,SCT,,0.00,972.0,WeatherDisplay:10.37,2015-07-06 19:45:00,
2015-07-06 13:50:00,69.2,50.3,29.87,SSE,148,2.0,17.0,51,0.00,SCT,,0.00,946.0,WeatherDisplay:10.37,2015-07-06 19:50:00,
2015-07-06 13:55:00,69.4,50.5,29.87,South,170,2.0,17.0,51,0.00,SCT,,0.00,921.0,WeatherDisplay:10.37,2015-07-06 19:55:00,
2015-07-06 14:00:00,69.7,49.7,29.87,SSE,157,6.0,17.0,49,0.00,SCT,,0.00,960.0,WeatherDisplay:10.37,2015-07-06 20:00:00,
2015-07-06 14:05:00,70.0,50.5,29.87,SE,128,5.0,9.0,50,0.00,SCT,,0.00,791.0,WeatherDisplay:10.37,2015-07-06 20:05:00,
2015-07-06 14:10:00,70.1,50.1,29.87,SE,135,5.0,17.0,49,0.00,SCT,,0.00,802.0,WeatherDisplay:10.37,2015-07-06 20:10:00,
2015-07-06 14:15:00,69.8,49.8,29.87,SSE,147,3.0,17.0,49,0.00,SCT,,0.00,687.0,WeatherDisplay:10.37,2015-07-06 20:15:00,
2015-07-06 14:20:00,69.6,49.6,29.87,South,176,3.0,17.0,49,0.00,SCT,,0.00,568.0,WeatherDisplay:10.37,2015-07-06 20:20:00,
2015-07-06 14:25:00,69.6,49.6,29.86,SSW,209,2.0,17.0,49,0.00,BKN,,0.00,649.0,WeatherDisplay:10.37,2015-07-06 20:25:00,
2015-07-06 14:30:00,69.6,50.1,29.86,South,170,3.0,17.0,50,0.00,BKN,,0.00,793.0,WeatherDisplay:10.37,2015-07-06 20:30:00,
2015-07-06 14:35:00,69.9,49.9,29.86,SE,134,2.0,17.0,49,0.00,BKN,,0.00,710.0,WeatherDisplay:10.37,2015-07-06 20:35:00,
2015-07-06 14:40:00,70.2,50.1,29.86,SE,125,5.0,17.0,49,0.00,BKN,,0.00,708.0,WeatherDisplay:10.37,2015-07-06 20:40:00,
2015-07-06 14:45:00,70.4,50.3,29.86,SE,136,2.0,17.0,49,0.00,BKN,,0.00,819.0,WeatherDisplay:10.37,2015-07-06 20:45:00,
2015-07-06 14:50:00,70.3,49.7,29.86,SSE,149,6.0,17.0,48,0.00,BKN,,0.00,531.0,WeatherDisplay:10.37,2015-07-06 20:50:00,
2015-07-06 14:55:00,70.2,49.5,29.86,SE,144,3.0,17.0,48,0.00,BKN,,0.00,647.0,WeatherDisplay:10.37,2015-07-06 20:55:00,
2015-07-06 15:00:00,70.1,49.5,29.86,SE,132,3.0,17.0,48,0.00,BKN,,0.00,795.0,WeatherDisplay:10.37,2015-07-06 21:00:00,
2015-07-06 15:05:00,70.2,49.6,29.86,SSE,155,1.0,10.0,48,0.00,BKN,,0.00,427.0,WeatherDisplay:10.37,2015-07-06 21:05:00,
2015-07-06 15:10:00,70.5,49.3,29.86,South,174,3.0,17.0,47,0.00,BKN,,0.00,932.0,WeatherDisplay:10.37,2015-07-06 21:10:00,
2015-07-06 15:15:00,70.9,49.6,29.86,SSE,165,3.0,17.0,47,0.00,BKN,,0.00,846.0,WeatherDisplay:10.37,2015-07-06 21:15:00,
2015-07-06 15:20:00,71.1,49.8,29.85,SSE,164,2.0,17.0,47,0.00,BKN,,0.00,854.0,WeatherDisplay:10.37,2015-07-06 21:20:00,
2015-07-06 15:25:00,71.2,49.9,29.85,SSE,162,2.0,10.0,47,0.00,OVC,,0.00,835.0,WeatherDisplay:10.37,2015-07-06 21:25:00,
2015-07-06 15:30:00,71.3,49.5,29.85,SE,135,2.0,9.0,46,0.00,OVC,,0.00,791.0,WeatherDisplay:10.37,2015-07-06 21:30:00,
2015-07-06 15:35:00,71.2,50.5,29.84,ESE,109,1.0,9.0,48,0.00,OVC,,0.00,805.0,WeatherDisplay:10.37,2015-07-06 21:35:00,
2015-07-06 15:40:00,71.6,49.7,29.84,SSE,149,3.0,17.0,46,0.00,OVC,,0.00,770.0,WeatherDisplay:10.37,2015-07-06 21:40:00,
2015-07-06 15:45:00,71.8,49.3,29.84,South,181,5.0,17.0,45,0.00,OVC,,0.00,679.0,WeatherDisplay:10.37,2015-07-06 21:45:00,
2015-07-06 15:50:00,71.7,48.6,29.84,SSE,155,2.0,17.0,44,0.00,OVC,,0.00,650.0,WeatherDisplay:10.37,2015-07-06 21:50:00,
2015-07-06 15:55:00,71.9,50.0,29.84,SSE,150,5.0,17.0,46,0.00,OVC,,0.00,605.0,WeatherDisplay:10.37,2015-07-06 21:55:00,
2015-07-06 16:00:00,72.0,49.4,29.84,SSE,160,1.0,17.0,45,0.00,OVC,,0.00,482.0,WeatherDisplay:10.37,2015-07-06 22:00:00,
2015-07-06 16:05:00,71.9,49.4,29.84,SSE,156,5.0,12.0,45,0.00,OVC,,0.00,619.0,WeatherDisplay:10.37,2015-07-06 22:05:00,
2015-07-06 16:10:00,71.6,49.1,29.84,South,188,1.0,17.0,45,0.00,OVC,,0.00,740.0,WeatherDisplay:10.37,2015-07-06 22:10:00,
2015-07-06 16:15:00,71.7,49.8,29.84,South,185,2.0,17.0,46,0.00,OVC,,0.00,738.0,WeatherDisplay:10.37,2015-07-06 22:15:00,
2015-07-06 16:20:00,72.0,50.1,29.83,SSE,165,1.0,12.0,46,0.00,OVC,,0.00,893.0,WeatherDisplay:10.37,2015-07-06 22:20:00,
2015-07-06 16:25:00,72.3,49.8,29.83,SSE,149,2.0,17.0,45,0.00,OVC,,0.00,893.0,WeatherDisplay:10.37,2015-07-06 22:25:00,
2015-07-06 16:30:00,72.4,49.9,29.83,SE,131,3.0,10.0,45,0.00,OVC,,0.00,889.0,WeatherDisplay:10.37,2015-07-06 22:30:00,
2015-07-06 16:35:00,72.8,50.8,29.83,SE,126,1.0,17.0,46,0.00,OVC,,0.00,893.0,WeatherDisplay:10.37,2015-07-06 22:35:00,
2015-07-06 16:40:00,73.1,49.3,29.83,SE,146,5.0,17.0,43,0.00,OVC,,0.00,791.0,WeatherDisplay:10.37,2015-07-06 22:40:00,
2015-07-06 16:45:00,73.0,48.5,29.83,SSE,157,3.0,17.0,42,0.00,OVC,,0.00,868.0,WeatherDisplay:10.37,2015-07-06 22:45:00,
2015-07-06 16:50:00,72.8,48.4,29.83,SSE,162,5.0,17.0,42,0.00,OVC,,0.00,795.0,WeatherDisplay:10.37,2015-07-06 22:50:00,
2015-07-06 16:55:00,72.9,48.5,29.83,SSE,161,5.0,17.0,42,0.00,OVC,,0.00,496.0,WeatherDisplay:10.37,2015-07-06 22:55:00,
2015-07-06 17:00:00,72.7,48.9,29.83,South,177,8.0,17.0,43,0.00,OVC,,0.00,427.0,WeatherDisplay:10.37,2015-07-06 23:00:00,
2015-07-06 17:05:00,72.2,49.1,29.83,SSE,165,3.0,7.0,44,0.00,OVC,,0.00,376.0,WeatherDisplay:10.37,2015-07-06 23:05:00,
2015-07-06 17:10:00,72.0,48.9,29.83,South,186,2.0,17.0,44,0.00,OVC,,0.00,464.0,WeatherDisplay:10.37,2015-07-06 23:10:00,
2015-07-06 17:15:00,72.2,48.4,29.83,SSW,204,1.0,7.0,43,0.00,OVC,,0.00,626.0,WeatherDisplay:10.37,2015-07-06 23:15:00,
2015-07-06 17:20:00,72.2,47.9,29.83,SSE,168,0.0,17.0,42,0.00,OVC,,0.00,355.0,WeatherDisplay:10.37,2015-07-06 23:20:00,
2015-07-06 17:25:00,72.4,48.6,29.83,SSE,167,1.0,17.0,43,0.00,OVC,,0.00,469.0,WeatherDisplay:10.37,2015-07-06 23:25:00,
2015-07-06 17:30:00,72.4,48.0,29.83,SSE,152,2.0,17.0,42,0.00,OVC,,0.00,338.0,WeatherDisplay:10.37,2015-07-06 23:30:00,
2015-07-06 17:35:00,72.2,47.8,29.82,SSE,163,1.0,17.0,42,0.00,OVC,,0.00,281.0,WeatherDisplay:10.37,2015-07-06 23:35:00,
2015-07-06 17:40:00,72.0,48.3,29.82,South,171,1.0,17.0,43,0.00,OVC,,0.00,269.0,WeatherDisplay:10.37,2015-07-06 23:40:00,
2015-07-06 17:45:00,71.9,46.9,29.82,SSE,165,2.0,17.0,41,0.00,OVC,,0.00,290.0,WeatherDisplay:10.37,2015-07-06 23:45:00,
2015-07-06 17:50:00,71.8,46.8,29.82,South,170,1.0,17.0,41,0.00,OVC,,0.00,308.0,WeatherDisplay:10.37,2015-07-06 23:50:00,
2015-07-06 17:55:00,71.8,48.1,29.82,South,171,2.0,17.0,43,0.00,OVC,,0.00,339.0,WeatherDisplay:10.37,2015-07-06 23:55:00,
2015-07-06 18:00:00,71.9,48.8,29.82,South,182,3.0,17.0,44,0.00,OVC,,0.00,399.0,WeatherDisplay:10.37,2015-07-07 00:00:00,
2015-07-06 18:05:00,72.1,49.0,29.82,South,179,3.0,6.0,44,0.00,OVC,,0.00,374.0,WeatherDisplay:10.37,2015-07-07 00:05:00,
2015-07-06 18:10:00,72.3,49.1,29.82,South,185,1.0,17.0,44,0.00,OVC,,0.00,323.0,WeatherDisplay:10.37,2015-07-07 00:10:00,
2015-07-06 18:15:00,72.3,48.5,29.81,South,181,3.0,17.0,43,0.00,OVC,,0.00,506.0,WeatherDisplay:10.37,2015-07-07 00:15:00,
2015-07-06 18:20:00,72.4,49.3,29.82,South,178,3.0,17.0,44,0.00,OVC,,0.00,482.0,WeatherDisplay:10.37,2015-07-07 00:20:00,
2015-07-06 18:25:00,72.6,49.4,29.81,South,187,1.0,17.0,44,0.00,OVC,,0.00,415.0,WeatherDisplay:10.37,2015-07-07 00:25:00,
2015-07-06 18:30:00,72.7,50.1,29.82,South,183,2.0,17.0,45,0.00,OVC,,0.00,443.0,WeatherDisplay:10.37,2015-07-07 00:30:00,
2015-07-06 18:35:00,72.7,50.1,29.81,South,171,0.0,9.0,45,0.00,OVC,,0.00,403.0,WeatherDisplay:10.37,2015-07-07 00:35:00,
2015-07-06 18:40:00,72.7,50.1,29.81,South,180,0.0,17.0,45,0.00,OVC,,0.00,401.0,WeatherDisplay:10.37,2015-07-07 00:40:00,
2015-07-06 18:45:00,72.9,49.7,29.81,South,186,0.0,17.0,44,0.00,OVC,,0.00,383.0,WeatherDisplay:10.37,2015-07-07 00:45:00,
2015-07-06 18:50:00,73.0,49.8,29.81,SSE,164,1.0,17.0,44,0.00,OVC,,0.00,436.0,WeatherDisplay:10.37,2015-07-07 00:50:00,
2015-07-06 18:55:00,72.8,50.2,29.81,SE,137,1.0,8.0,45,0.00,OVC,,0.00,367.0,WeatherDisplay:10.37,2015-07-07 00:55:00,
2015-07-06 19:05:00,72.5,49.9,29.81,ESE,114,1.0,5.0,45,0.00,OVC,,0.00,162.0,WeatherDisplay:10.37,2015-07-07 01:05:00,
2015-07-06 19:10:00,72.2,50.3,29.81,SE,127,1.0,17.0,46,0.00,OVC,,0.00,190.0,WeatherDisplay:10.37,2015-07-07 01:10:00,
2015-07-06 19:15:00,71.9,50.6,29.81,South,173,2.0,17.0,47,0.00,OVC,,0.00,404.0,WeatherDisplay:10.37,2015-07-07 01:15:00,
2015-07-06 19:20:00,72.0,51.2,29.81,South,182,2.0,17.0,48,0.00,OVC,,0.00,413.0,WeatherDisplay:10.37,2015-07-07 01:20:00,
2015-07-06 19:25:00,72.2,50.8,29.81,South,180,2.0,17.0,47,0.00,BKN,,0.00,404.0,WeatherDisplay:10.37,2015-07-07 01:25:00,
2015-07-06 19:30:00,72.3,50.9,29.81,SSE,162,1.0,17.0,47,0.00,BKN,,0.00,376.0,WeatherDisplay:10.37,2015-07-07 01:30:00,
2015-07-06 19:35:00,72.4,49.9,29.81,SSE,162,2.0,17.0,45,0.00,BKN,,0.00,364.0,WeatherDisplay:10.37,2015-07-07 01:35:00,
2015-07-06 19:40:00,72.4,50.4,29.81,South,180,0.0,17.0,46,0.00,BKN,,0.00,123.0,WeatherDisplay:10.37,2015-07-07 01:40:00,
2015-07-06 19:45:00,72.2,49.7,29.81,SSE,153,2.0,17.0,45,0.00,BKN,,0.00,186.0,WeatherDisplay:10.37,2015-07-07 01:45:00,
2015-07-06 19:50:00,71.8,49.9,29.82,SE,140,0.0,17.0,46,0.00,BKN,,0.00,104.0,WeatherDisplay:10.37,2015-07-07 01:50:00,
2015-07-06 19:55:00,71.4,50.1,29.82,SSE,148,0.0,17.0,47,0.00,BKN,,0.00,93.0,WeatherDisplay:10.37,2015-07-07 01:55:00,
2015-07-06 20:00:00,71.0,50.8,29.82,SSE,164,0.0,17.0,49,0.00,BKN,,0.00,93.0,WeatherDisplay:10.37,2015-07-07 02:00:00,
2015-07-06 20:05:00,70.6,51.6,29.82,SSE,147,0.0,0.0,51,0.00,BKN,,0.00,88.0,WeatherDisplay:10.37,2015-07-07 02:05:00,
2015-07-06 20:10:00,70.3,51.8,29.82,SE,141,0.0,17.0,52,0.00,BKN,,0.00,70.0,WeatherDisplay:10.37,2015-07-07 02:10:00,
2015-07-06 20:15:00,70.1,51.6,29.82,SE,141,0.0,17.0,52,0.00,BKN,,0.00,47.0,WeatherDisplay:10.37,2015-07-07 02:15:00,
2015-07-06 20:20:00,69.8,51.9,29.82,SE,132,0.0,17.0,53,0.00,BKN,,0.00,21.0,WeatherDisplay:10.37,2015-07-07 02:20:00,
2015-07-06 20:25:00,69.5,51.6,29.83,East,84,0.0,17.0,53,0.00,BKN,,0.00,9.0,WeatherDisplay:10.37,2015-07-07 02:25:00,
2015-07-06 20:30:00,69.2,51.9,29.83,ENE,74,0.0,17.0,54,0.00,BKN,,0.00,7.0,WeatherDisplay:10.37,2015-07-07 02:30:00,
2015-07-06 20:35:00,68.9,52.0,29.83,ENE,74,0.0,17.0,55,0.00,BKN,,0.00,5.0,WeatherDisplay:10.37,2015-07-07 02:35:00,
2015-07-06 20:40:00,68.5,52.2,29.83,ENE,74,0.0,17.0,56,0.00,BKN,,0.00,0.0,WeatherDisplay:10.37,2015-07-07 02:40:00,
2015-07-06 20:45:00,67.7,52.9,29.85,ENE,68,1.0,17.0,59,0.00,BKN,,0.00,5.0,WeatherDisplay:10.37,2015-07-07 02:45:00,
2015-07-06 20:50:00,64.7,50.9,29.87,NNW,333,17.0,34.0,61,0.00,BKN,,0.00,0.0,WeatherDisplay:10.37,2015-07-07 02:50:00,
2015-07-06 20:55:00,61.2,51.7,29.88,NNW,327,10.0,34.0,71,0.01,RA,,0.01,0.0,WeatherDisplay:10.37,2015-07-07 02:55:00,
2015-07-06 21:00:00,59.7,52.1,29.88,NNW,329,10.0,34.0,76,0.00,RA,,0.01,0.0,WeatherDisplay:10.37,2015-07-07 03:00:00,
2015-07-06 21:05:00,58.9,52.4,29.88,NNW,333,14.0,21.0,79,0.00,BKN,,0.01,0.0,WeatherDisplay:10.37,2015-07-07 03:05:00,
2015-07-06 21:10:00,58.5,52.4,29.89,NNW,337,13.0,34.0,80,0.00,BKN,,0.01,0.0,WeatherDisplay:10.37,2015-07-07 03:10:00,
2015-07-06 21:20:00,57.9,52.5,29.89,NNW,344,14.0,34.0,82,0.00,RA,,0.02,5.0,WeatherDisplay:10.37,2015-07-07 03:20:00,
2015-07-06 21:25:00,57.3,52.2,29.89,NNW,343,14.0,34.0,83,0.01,RA,,0.03,7.0,WeatherDisplay:10.37,2015-07-07 03:25:00,
2015-07-06 21:30:00,57.1,52.0,29.90,NNW,344,9.0,18.0,83,0.01,RA,,0.04,7.0,WeatherDisplay:10.37,2015-07-07 03:30:00,
2015-07-06 21:35:00,57.1,51.7,29.90,NNW,341,10.0,34.0,82,0.00,RA,,0.04,9.0,WeatherDisplay:10.37,2015-07-07 03:35:00,
2015-07-06 21:40:00,57.2,51.8,29.90,NNW,343,10.0,34.0,82,0.00,BKN,,0.04,9.0,WeatherDisplay:10.37,2015-07-07 03:40:00,
2015-07-06 21:45:00,57.2,51.8,29.90,North,349,12.0,34.0,82,0.00,BKN,,0.04,7.0,WeatherDisplay:10.37,2015-07-07 03:45:00,
2015-07-06 21:50:00,57.1,51.7,29.90,NNW,345,13.0,34.0,82,0.00,BKN,,0.04,0.0,WeatherDisplay:10.37,2015-07-07 03:50:00,
2015-07-06 21:55:00,57.1,52.0,29.91,NNW,340,9.0,34.0,83,0.00,BKN,,0.04,0.0,WeatherDisplay:10.37,2015-07-07 03:55:00,
2015-07-06 22:00:00,57.1,51.9,29.92,NNW,343,9.0,34.0,83,0.00,BKN,,0.04,0.0,WeatherDisplay:10.37,2015-07-07 04:00:00,
2015-07-06 22:05:00,57.0,51.9,29.92,NNW,338,6.0,13.0,83,0.00,BKN,,0.04,0.0,WeatherDisplay:10.37,2015-07-07 04:05:00,
2015-07-06 22:10:00,57.1,52.0,29.92,NNW,328,6.0,34.0,83,0.00,BKN,,0.04,0.0,WeatherDisplay:10.37,2015-07-07 04:10:00,
2015-07-06 22:15:00,57.1,52.0,29.92,NW,326,5.0,34.0,83,0.00,BKN,,0.04,0.0,WeatherDisplay:10.37,2015-07-07 04:15:00,
2015-07-06 22:20:00,57.0,51.6,29.92,NNW,327,3.0,34.0,82,0.00,BKN,,0.04,0.0,WeatherDisplay:10.37,2015-07-07 04:20:00,
2015-07-06 22:25:00,57.0,51.6,29.92,NNW,328,1.0,34.0,82,0.00,OVC,,0.04,0.0,WeatherDisplay:10.37,2015-07-07 04:25:00,
2015-07-06 22:30:00,57.0,51.6,29.92,NW,326,1.0,34.0,82,0.00,OVC,,0.04,0.0,WeatherDisplay:10.37,2015-07-07 04:30:00,
2015-07-06 22:35:00,57.0,51.6,29.92,NW,326,2.0,34.0,82,0.00,OVC,,0.04,0.0,WeatherDisplay:10.37,2015-07-07 04:35:00,
2015-07-06 22:40:00,57.1,51.7,29.92,NW,326,0.0,4.0,82,0.00,OVC,,0.04,0.0,WeatherDisplay:10.37,2015-07-07 04:40:00,
2015-07-06 22:45:00,57.1,52.0,29.91,NNW,338,0.0,34.0,83,0.00,OVC,,0.04,0.0,WeatherDisplay:10.37,2015-07-07 04:45:00,
2015-07-06 22:50:00,57.1,51.7,29.92,NNW,338,3.0,34.0,82,0.00,OVC,,0.04,0.0,WeatherDisplay:10.37,2015-07-07 04:50:00,
2015-07-06 22:55:00,57.2,51.8,29.92,NNW,337,3.0,34.0,82,0.00,OVC,,0.04,0.0,WeatherDisplay:10.37,2015-07-07 04:55:00,
2015-07-06 23:00:00,57.2,51.8,29.92,NNW,338,2.0,34.0,82,0.00,OVC,,0.04,0.0,WeatherDisplay:10.37,2015-07-07 05:00:00,
2015-07-06 23:05:00,57.0,51.6,29.91,NNW,336,0.0,4.0,82,0.00,OVC,,0.04,0.0,WeatherDisplay:10.37,2015-07-07 05:05:00,
2015-07-06 23:10:00,56.9,51.8,29.91,NNW,335,0.0,34.0,83,0.00,OVC,,0.04,0.0,WeatherDisplay:10.37,2015-07-07 05:10:00,
2015-07-06 23:15:00,56.8,51.7,29.92,NNW,335,0.0,34.0,83,0.00,OVC,,0.04,0.0,WeatherDisplay:10.37,2015-07-07 05:15:00,
2015-07-06 23:20:00,56.8,52.0,29.91,NNW,335,0.0,34.0,84,0.00,OVC,,0.04,0.0,WeatherDisplay:10.37,2015-07-07 05:20:00,
2015-07-06 23:25:00,56.6,51.5,29.91,NNW,335,0.0,34.0,83,0.00,OVC,,0.04,0.0,WeatherDisplay:10.37,2015-07-07 05:25:00,
2015-07-06 23:30:00,56.6,51.8,29.90,NNW,342,0.0,34.0,84,0.00,OVC,,0.04,0.0,WeatherDisplay:10.37,2015-07-07 05:30:00,
2015-07-06 23:35:00,56.6,52.1,29.90,NE,45,0.0,34.0,85,0.00,OVC,,0.04,0.0,WeatherDisplay:10.37,2015-07-07 05:35:00,
2015-07-06 23:40:00,56.4,51.9,29.90,East,85,0.0,34.0,85,0.00,OVC,,0.04,0.0,WeatherDisplay:10.37,2015-07-07 05:40:00,
2015-07-06 23:45:00,56.2,52.1,29.90,East,86,0.0,34.0,86,0.00,OVC,,0.04,0.0,WeatherDisplay:10.37,2015-07-07 05:45:00,
2015-07-06 23:50:00,56.0,51.9,29.90,East,86,0.0,34.0,86,0.00,OVC,,0.04,0.0,WeatherDisplay:10.37,2015-07-07 05:50:00,
2015-07-06 23:55:00,55.9,52.1,29.89,SE,126,5.0,34.0,87,0.00,OVC,,0.04,0.0,WeatherDisplay:10.37,2015-07-07 05:55:00,